createdAt,value
2019-04-30T00:00:06.168Z,101350.79
2019-04-30T00:02:40.115Z,101349.73
2019-04-30T00:05:10.059Z,101350.92
2019-04-30T00:07:40.111Z,101352.99
2019-04-30T00:10:09.285Z,101352.37
2019-04-30T00:12:39.664Z,101345.70
2019-04-30T00:15:11.046Z,101346.53
2019-04-30T00:17:39.780Z,101345.95
2019-04-30T00:20:08.851Z,101344.16
2019-04-30T00:22:39.298Z,101340.98
2019-04-30T00:25:08.720Z,101340.45
2019-04-30T00:27:37.813Z,101337.33
2019-04-30T00:30:08.942Z,101331.53
2019-04-30T00:32:43.402Z,101340.70
2019-04-30T00:35:11.915Z,101339.73
2019-04-30T00:37:39.792Z,101330.02
2019-04-30T00:40:08.955Z,101328.61
2019-04-30T00:42:38.049Z,101322.41
2019-04-30T00:45:09.897Z,101326.67
2019-04-30T00:47:43.518Z,101329.70
2019-04-30T00:50:11.223Z,101329.20
2019-04-30T00:52:40.330Z,101329.99
2019-04-30T00:55:09.594Z,101330.38
2019-04-30T00:57:43.662Z,101333.84
2019-04-30T01:00:12.362Z,101331.06
2019-04-30T01:03:05.873Z,101326.23
2019-04-30T01:05:39.634Z,101329.16
2019-04-30T01:08:07.085Z,101333.46
2019-04-30T01:10:36.929Z,101328.09
2019-04-30T01:13:08.202Z,101337.25
2019-04-30T01:15:38.965Z,101329.70
2019-04-30T01:18:09.241Z,101335.31
2019-04-30T01:20:38.627Z,101336.17
2019-04-30T01:23:11.272Z,101336.47
2019-04-30T01:25:43.197Z,101334.22
2019-04-30T01:28:11.567Z,101333.20
2019-04-30T01:30:42.318Z,101329.14
2019-04-30T01:33:11.478Z,101325.09
2019-04-30T01:35:40.681Z,101330.74
2019-04-30T01:38:12.688Z,101327.17
2019-04-30T01:40:47.310Z,101330.59
2019-04-30T01:43:13.677Z,101326.98
2019-04-30T01:45:42.742Z,101331.81
2019-04-30T01:48:12.802Z,101333.08
2019-04-30T01:50:42.280Z,101329.99
2019-04-30T01:53:13.124Z,101329.08
2019-04-30T01:56:09.561Z,101329.06
2019-04-30T01:58:59.971Z,101319.31
2019-04-30T02:01:31.203Z,101324.48
2019-04-30T02:04:00.489Z,101323.49
2019-04-30T02:06:29.565Z,101324.36
2019-04-30T02:08:59.338Z,101329.92
2019-04-30T02:11:28.893Z,101326.84
2019-04-30T02:13:59.136Z,101332.05
2019-04-30T02:16:28.939Z,101334.63
2019-04-30T02:18:59.682Z,101333.27
2019-04-30T02:21:30.344Z,101330.96
2019-04-30T02:23:59.565Z,101333.54
2019-04-30T02:26:28.744Z,101333.04
2019-04-30T02:28:59.420Z,101332.06
2019-04-30T02:31:31.015Z,101335.61
2019-04-30T02:34:10.249Z,101336.88
2019-04-30T02:36:51.746Z,101339.45
2019-04-30T02:39:20.870Z,101328.87
2019-04-30T02:41:50.697Z,101329.27
2019-04-30T02:44:20.755Z,101339.73
2019-04-30T02:46:50.729Z,101343.25
2019-04-30T02:49:21.237Z,101329.59
2019-04-30T02:51:51.403Z,101331.25
2019-04-30T02:54:29.662Z,101334.69
2019-04-30T02:57:23.861Z,101335.47
2019-04-30T03:00:13.197Z,101339.79
2019-04-30T03:02:42.298Z,101338.42
2019-04-30T03:05:13.660Z,101340.55
2019-04-30T03:07:42.282Z,101340.49
2019-04-30T03:10:11.781Z,101344.81
2019-04-30T03:12:40.923Z,101338.56
2019-04-30T03:15:10.276Z,101334.56
2019-04-30T03:18:00.679Z,101339.77
2019-04-30T03:20:36.348Z,101337.52
2019-04-30T03:23:05.840Z,101338.34
2019-04-30T03:25:34.846Z,101336.20
2019-04-30T03:28:03.917Z,101341.35
2019-04-30T03:30:33.027Z,101347.92
2019-04-30T03:33:03.054Z,101337.30
2019-04-30T03:35:32.856Z,101336.41
2019-04-30T03:38:01.983Z,101335.92
2019-04-30T03:40:31.061Z,101334.11
2019-04-30T03:43:03.191Z,101332.30
2019-04-30T03:45:30.939Z,101334.42
2019-04-30T03:48:00.419Z,101339.25
2019-04-30T03:50:48.215Z,101332.20
2019-04-30T03:53:00.738Z,101333.88
2019-04-30T03:55:30.075Z,101335.14
2019-04-30T03:58:00.147Z,101327.58
2019-04-30T04:00:42.141Z,101334.58
2019-04-30T04:03:10.081Z,101333.61
2019-04-30T04:05:53.625Z,101335.78
2019-04-30T04:08:29.358Z,101332.21
2019-04-30T04:11:20.080Z,101339.61
2019-04-30T04:13:49.594Z,101339.98
2019-04-30T04:16:19.484Z,101338.61
2019-04-30T04:18:50.148Z,101339.55
2019-04-30T04:21:20.577Z,101344.36
2019-04-30T04:23:49.820Z,101343.88
2019-04-30T04:26:20.283Z,101346.44
2019-04-30T04:28:49.856Z,101347.27
2019-04-30T04:31:19.551Z,101350.75
2019-04-30T04:33:52.247Z,101359.95
2019-04-30T04:36:20.114Z,101349.88
2019-04-30T04:38:50.648Z,101356.89
2019-04-30T04:41:20.132Z,101357.44
2019-04-30T04:43:50.398Z,101361.38
2019-04-30T04:46:20.588Z,101365.41
2019-04-30T04:48:49.974Z,101364.09
2019-04-30T04:51:31.300Z,101364.09
2019-04-30T04:53:50.202Z,101370.72
2019-04-30T04:56:19.409Z,101376.89
2019-04-30T04:58:50.261Z,101372.52
2019-04-30T05:01:20.408Z,101368.15
2019-04-30T05:03:49.650Z,101369.06
2019-04-30T05:06:21.816Z,101367.78
2019-04-30T05:08:49.554Z,101380.31
2019-04-30T05:11:19.238Z,101380.00
2019-04-30T05:13:49.044Z,101376.56
2019-04-30T05:16:19.043Z,101370.11
2019-04-30T05:18:48.796Z,101374.11
2019-04-30T05:21:18.803Z,101375.10
2019-04-30T05:23:49.278Z,101374.73
2019-04-30T05:26:19.081Z,101379.64
2019-04-30T05:28:51.123Z,101385.90
2019-04-30T05:31:21.086Z,101384.66
2019-04-30T05:33:50.460Z,101379.51
2019-04-30T05:36:20.127Z,101383.19
2019-04-30T05:38:49.210Z,101387.23
2019-04-30T05:41:19.301Z,101389.12
2019-04-30T05:43:48.986Z,101381.39
2019-04-30T05:46:19.598Z,101382.87
2019-04-30T05:48:49.510Z,101390.00
2019-04-30T05:51:21.054Z,101389.73
2019-04-30T05:53:49.482Z,101391.25
2019-04-30T05:56:19.330Z,101395.81
2019-04-30T05:58:49.422Z,101387.59
2019-04-30T06:01:19.629Z,101390.00
2019-04-30T06:03:49.063Z,101391.03
2019-04-30T06:06:19.299Z,101393.88
2019-04-30T06:09:13.049Z,101398.00
2019-04-30T06:12:11.483Z,101402.15
2019-04-30T06:14:51.851Z,101399.72
2019-04-30T06:17:21.306Z,101399.00
2019-04-30T06:19:51.471Z,101400.52
2019-04-30T06:22:20.752Z,101402.86
2019-04-30T06:24:49.824Z,101403.03
2019-04-30T06:27:19.360Z,101397.47
2019-04-30T06:29:48.951Z,101402.93
2019-04-30T06:32:18.738Z,101396.10
2019-04-30T06:34:49.845Z,101396.26
2019-04-30T06:37:19.557Z,101397.33
2019-04-30T06:39:50.027Z,101400.59
2019-04-30T06:42:19.606Z,101400.30
2019-04-30T06:44:49.610Z,101398.23
2019-04-30T06:47:26.610Z,101404.58
2019-04-30T06:49:49.682Z,101406.09
2019-04-30T06:52:23.253Z,101399.23
2019-04-30T06:54:49.989Z,101406.44
2019-04-30T06:57:19.923Z,101398.27
2019-04-30T06:59:51.212Z,101405.97
2019-04-30T07:02:19.996Z,101406.14
2019-04-30T07:04:49.403Z,101408.08
2019-04-30T07:07:23.084Z,101395.09
2019-04-30T07:10:21.358Z,101396.59
2019-04-30T07:12:58.847Z,101397.20
2019-04-30T07:15:29.517Z,101389.05
2019-04-30T07:17:59.140Z,101391.93
2019-04-30T07:20:29.137Z,101388.56
2019-04-30T07:23:02.810Z,101389.20
2019-04-30T07:25:29.377Z,101384.12
2019-04-30T07:27:59.788Z,101392.68
2019-04-30T07:30:30.865Z,101391.98
2019-04-30T07:32:59.856Z,101395.66
2019-04-30T07:35:29.320Z,101395.87
2019-04-30T07:38:00.616Z,101402.63
2019-04-30T07:40:29.562Z,101398.84
2019-04-30T07:42:59.674Z,101398.17
2019-04-30T07:45:31.603Z,101392.17
2019-04-30T07:47:59.583Z,101402.89
2019-04-30T07:50:31.351Z,101395.59
2019-04-30T07:53:05.507Z,101393.59
2019-04-30T07:55:30.284Z,101390.25
2019-04-30T07:57:59.513Z,101394.84
2019-04-30T08:00:30.984Z,101394.12
2019-04-30T08:03:06.346Z,101388.15
2019-04-30T08:05:40.314Z,101385.27
2019-04-30T08:08:21.234Z,101381.52
2019-04-30T08:10:40.208Z,101383.94
2019-04-30T08:13:14.098Z,101381.44
2019-04-30T08:15:42.101Z,101383.39
2019-04-30T08:18:10.871Z,101382.70
2019-04-30T08:20:39.975Z,101388.19
2019-04-30T08:23:17.343Z,101383.95
2019-04-30T08:25:39.877Z,101388.54
2019-04-30T08:28:09.175Z,101385.61
2019-04-30T08:30:39.171Z,101385.73
2019-04-30T08:33:09.485Z,101382.33
2019-04-30T08:35:39.792Z,101380.24
2019-04-30T08:38:10.757Z,101377.70
2019-04-30T08:40:52.848Z,101380.07
2019-04-30T08:43:10.710Z,101371.78
2019-04-30T08:45:39.808Z,101369.67
2019-04-30T08:48:09.140Z,101371.55
2019-04-30T08:50:39.428Z,101362.33
2019-04-30T08:53:10.962Z,101364.65
2019-04-30T08:55:39.731Z,101365.58
2019-04-30T08:58:14.530Z,101363.44
2019-04-30T09:00:39.689Z,101364.86
2019-04-30T09:03:09.343Z,101362.67
2019-04-30T09:05:56.576Z,101362.76
2019-04-30T09:08:25.665Z,101351.25
2019-04-30T09:10:54.682Z,101358.83
2019-04-30T09:13:23.954Z,101353.99
2019-04-30T09:15:52.955Z,101352.26
2019-04-30T09:18:22.205Z,101354.52
2019-04-30T09:20:51.899Z,101354.98
2019-04-30T09:23:20.981Z,101345.66
2019-04-30T09:25:50.082Z,101345.19
2019-04-30T09:28:19.850Z,101344.75
2019-04-30T09:30:49.173Z,101343.84
2019-04-30T09:33:19.420Z,101339.36
2019-04-30T09:35:49.506Z,101342.44
2019-04-30T09:38:19.500Z,101336.19
2019-04-30T09:40:50.593Z,101336.13
2019-04-30T09:43:19.540Z,101339.69
2019-04-30T09:45:49.728Z,101334.28
2019-04-30T09:48:19.210Z,101335.56
2019-04-30T09:50:49.551Z,101333.73
2019-04-30T09:53:19.850Z,101333.66
2019-04-30T09:55:49.746Z,101335.83
2019-04-30T09:58:21.032Z,101329.98
2019-04-30T10:00:50.367Z,101329.89
2019-04-30T10:03:20.884Z,101329.78
2019-04-30T10:05:50.400Z,101327.01
2019-04-30T10:08:20.949Z,101324.73
2019-04-30T10:11:15.322Z,101322.42
2019-04-30T10:13:44.395Z,101329.02
2019-04-30T10:16:23.065Z,101319.05
2019-04-30T10:18:52.236Z,101323.84
2019-04-30T10:21:21.331Z,101303.22
2019-04-30T10:24:10.216Z,101310.59
2019-04-30T10:26:26.855Z,101303.33
2019-04-30T10:28:56.143Z,101298.72
2019-04-30T10:31:25.295Z,101294.99
2019-04-30T10:33:54.367Z,101299.27
2019-04-30T10:36:23.605Z,101296.05
2019-04-30T10:38:52.689Z,101284.63
2019-04-30T10:41:21.761Z,101278.59
2019-04-30T10:43:50.850Z,101282.32
2019-04-30T10:46:19.929Z,101285.69
2019-04-30T10:48:49.020Z,101286.29
2019-04-30T10:51:18.901Z,101269.97
2019-04-30T10:53:48.603Z,101270.08
2019-04-30T10:56:19.331Z,101272.05
2019-04-30T10:58:48.513Z,101268.64
2019-04-30T11:01:19.270Z,101266.12
2019-04-30T11:03:48.560Z,101275.56
2019-04-30T11:06:19.217Z,101264.88
2019-04-30T11:08:48.408Z,101259.11
2019-04-30T11:11:17.492Z,101258.84
2019-04-30T11:13:46.568Z,101253.25
2019-04-30T11:16:15.796Z,101251.16
2019-04-30T11:18:45.158Z,101253.34
2019-04-30T11:21:14.617Z,101250.84
2019-04-30T11:23:44.073Z,101251.97
2019-04-30T11:26:13.980Z,101249.73
2019-04-30T11:28:43.587Z,101248.64
2019-04-30T11:31:30.689Z,101236.45
2019-04-30T11:34:01.376Z,101242.61
2019-04-30T11:36:30.434Z,101242.50
2019-04-30T11:38:59.519Z,101246.94
2019-04-30T11:41:32.882Z,101237.81
2019-04-30T11:43:59.566Z,101232.14
2019-04-30T11:46:54.742Z,101229.13
2019-04-30T11:49:23.915Z,101217.11
2019-04-30T11:51:52.978Z,101214.30
2019-04-30T11:54:22.079Z,101210.55
2019-04-30T11:56:51.147Z,101209.45
2019-04-30T11:59:20.236Z,101209.16
2019-04-30T12:01:51.525Z,101206.28
2019-04-30T12:04:20.619Z,101208.23
2019-04-30T12:06:50.265Z,101201.03
2019-04-30T12:09:50.495Z,101210.88
2019-04-30T12:12:19.570Z,101200.64
2019-04-30T12:14:49.424Z,101206.65
2019-04-30T12:17:18.531Z,101196.23
2019-04-30T12:19:48.876Z,101205.44
2019-04-30T12:22:20.027Z,101198.30
2019-04-30T12:25:01.492Z,101197.29
2019-04-30T12:27:19.793Z,101196.04
2019-04-30T12:29:49.531Z,101202.07
2019-04-30T12:32:19.193Z,101204.88
2019-04-30T12:34:49.610Z,101201.59
2019-04-30T12:37:19.110Z,101202.98
2019-04-30T12:39:49.489Z,101193.31
2019-04-30T12:42:18.934Z,101197.55
2019-04-30T12:44:49.562Z,101199.16
2019-04-30T12:47:21.743Z,101193.47
2019-04-30T12:50:00.900Z,101184.62
2019-04-30T12:53:09.283Z,101189.73
2019-04-30T12:56:34.478Z,101185.27
2019-04-30T12:59:03.957Z,101170.00
2019-04-30T13:01:34.215Z,101170.00
2019-04-30T13:04:03.517Z,101172.45
2019-04-30T13:06:33.240Z,101174.02
2019-04-30T13:09:03.257Z,101167.69
2019-04-30T13:11:33.247Z,101169.83
2019-04-30T13:14:03.074Z,101151.77
2019-04-30T13:16:32.518Z,101151.77
2019-04-30T13:19:01.575Z,101144.93
2019-04-30T13:21:30.669Z,101139.14
2019-04-30T13:23:59.722Z,101145.09
2019-04-30T13:26:28.814Z,101136.69
2019-04-30T13:29:02.353Z,101134.80
2019-04-30T13:31:31.447Z,101127.98
2019-04-30T13:34:18.687Z,101131.97
2019-04-30T13:36:49.349Z,101128.12
2019-04-30T13:39:26.886Z,101133.41
2019-04-30T13:42:14.567Z,101130.98
2019-04-30T13:44:36.560Z,101118.09
2019-04-30T13:47:05.643Z,101118.87
2019-04-30T13:49:34.706Z,101127.58
2019-04-30T13:52:04.086Z,101115.69
2019-04-30T13:54:33.076Z,101115.69
2019-04-30T13:57:02.164Z,101115.89
2019-04-30T13:59:31.324Z,101117.19
2019-04-30T14:02:00.402Z,101118.20
2019-04-30T14:04:45.397Z,101120.76
2019-04-30T14:07:51.649Z,101113.61
2019-04-30T14:10:20.831Z,101116.80
2019-04-30T14:12:56.684Z,101111.87
2019-04-30T14:15:25.770Z,101109.55
2019-04-30T14:17:54.869Z,101111.59
2019-04-30T14:20:23.937Z,101101.13
2019-04-30T14:22:53.022Z,101104.80
2019-04-30T14:25:22.100Z,101101.21
2019-04-30T14:27:54.511Z,101094.60
2019-04-30T14:30:22.263Z,101096.09
2019-04-30T14:32:51.385Z,101097.09
2019-04-30T14:35:20.445Z,101093.19
2019-04-30T14:37:49.780Z,101099.34
2019-04-30T14:40:20.450Z,101098.54
2019-04-30T14:42:56.500Z,101098.31
2019-04-30T14:45:31.460Z,101089.73
2019-04-30T14:48:07.414Z,101092.62
2019-04-30T14:50:38.575Z,101084.72
2019-04-30T14:53:30.519Z,101084.48
2019-04-30T14:56:24.604Z,101079.69
2019-04-30T14:59:25.404Z,101075.50
2019-04-30T15:02:11.597Z,101075.50
2019-04-30T15:04:40.668Z,101067.91
2019-04-30T15:07:09.777Z,101067.91
2019-04-30T15:09:38.827Z,101067.70
2019-04-30T15:12:09.690Z,101069.11
2019-04-30T15:14:40.920Z,101060.52
2019-04-30T15:17:09.706Z,101055.99
2019-04-30T15:19:38.783Z,101055.99
2019-04-30T15:22:09.135Z,101058.33
2019-04-30T15:25:34.640Z,101059.80
2019-04-30T15:28:03.903Z,101061.34
2019-04-30T15:30:32.969Z,101055.32
2019-04-30T15:33:09.496Z,101057.61
2019-04-30T15:35:38.565Z,101054.34
2019-04-30T15:38:09.392Z,101065.45
2019-04-30T15:40:38.833Z,101050.68
2019-04-30T15:43:07.986Z,101048.89
2019-04-30T15:45:39.058Z,101039.66
2019-04-30T15:48:08.550Z,101042.48
2019-04-30T15:50:39.244Z,101045.72
2019-04-30T15:53:09.455Z,101043.98
2019-04-30T15:55:38.730Z,101050.47
2019-04-30T15:58:14.677Z,101042.52
2019-04-30T16:00:43.757Z,101044.42
2019-04-30T16:03:18.706Z,101040.52
2019-04-30T16:05:49.502Z,101034.83
2019-04-30T16:08:42.420Z,101043.02
2019-04-30T16:11:45.630Z,101037.36
2019-04-30T16:14:22.715Z,101035.39
2019-04-30T16:17:08.280Z,101029.32
2019-04-30T16:19:37.374Z,101030.27
2019-04-30T16:22:06.858Z,101027.13
2019-04-30T16:24:35.943Z,101027.97
2019-04-30T16:27:05.426Z,101021.19
2019-04-30T16:29:34.516Z,101022.98
2019-04-30T16:32:03.611Z,101023.42
2019-04-30T16:34:32.700Z,101021.52
2019-04-30T16:37:01.758Z,101019.26
2019-04-30T16:39:30.875Z,101024.12
2019-04-30T16:41:59.969Z,101017.71
2019-04-30T16:44:29.119Z,101017.55
2019-04-30T16:46:59.643Z,101011.92
2019-04-30T16:49:29.759Z,101010.41
2019-04-30T16:52:01.467Z,101008.46
2019-04-30T16:54:29.646Z,101010.13
2019-04-30T16:57:04.136Z,101006.33
2019-04-30T16:59:54.835Z,101005.14
2019-04-30T17:02:25.722Z,101002.61
2019-04-30T17:05:08.845Z,101008.31
2019-04-30T17:08:03.928Z,101009.47
2019-04-30T17:10:54.774Z,101013.71
2019-04-30T17:13:29.400Z,101010.92
2019-04-30T17:16:04.727Z,101013.37
2019-04-30T17:18:33.718Z,101009.14
2019-04-30T17:21:02.813Z,101008.91
2019-04-30T17:23:31.904Z,101008.27
2019-04-30T17:26:01.003Z,101010.73
2019-04-30T17:28:30.063Z,101010.05
2019-04-30T17:30:59.166Z,101010.32
2019-04-30T17:33:28.240Z,101009.59
2019-04-30T17:35:57.334Z,101012.02
2019-04-30T17:38:26.400Z,101007.71
2019-04-30T17:40:55.506Z,101006.98
2019-04-30T17:43:24.638Z,101009.87
2019-04-30T17:45:53.746Z,101010.49
2019-04-30T17:48:22.806Z,101007.11
2019-04-30T17:50:51.819Z,101009.11
2019-04-30T17:53:20.881Z,101002.60
2019-04-30T17:55:49.999Z,101004.59
2019-04-30T17:58:20.599Z,101004.37
2019-04-30T18:00:53.580Z,101003.31
2019-04-30T18:03:22.648Z,101003.08
2019-04-30T18:05:51.735Z,101002.89
2019-04-30T18:08:21.319Z,101008.51
2019-04-30T18:10:50.514Z,101013.29
2019-04-30T18:13:19.578Z,101014.39
2019-04-30T18:15:48.676Z,101013.36
2019-04-30T18:18:29.314Z,101010.42
2019-04-30T18:21:15.316Z,101014.23
2019-04-30T18:24:01.998Z,101018.48
2019-04-30T18:26:31.577Z,101018.73
2019-04-30T18:29:00.654Z,101021.23
2019-04-30T18:31:29.924Z,101011.61
2019-04-30T18:33:59.352Z,101014.53
2019-04-30T18:36:29.408Z,101017.89
2019-04-30T18:38:59.072Z,101020.30
2019-04-30T18:41:28.150Z,101011.55
2019-04-30T18:44:09.476Z,101012.68
2019-04-30T18:46:39.126Z,101014.65
2019-04-30T18:49:10.281Z,101017.08
2019-04-30T18:51:42.162Z,101014.15
2019-04-30T18:54:09.898Z,101019.16
2019-04-30T18:56:39.621Z,101014.88
2019-04-30T18:59:08.889Z,101014.62
2019-04-30T19:01:38.043Z,101028.59
2019-04-30T19:04:09.229Z,101025.19
2019-04-30T19:06:37.934Z,101020.87
2019-04-30T19:09:40.103Z,101025.48
2019-04-30T19:12:29.050Z,101029.63
2019-04-30T19:15:15.568Z,101022.66
2019-04-30T19:18:18.814Z,101034.81
2019-04-30T19:20:50.508Z,101037.17
2019-04-30T19:23:19.579Z,101031.52
2019-04-30T19:25:48.688Z,101039.64
2019-04-30T19:28:18.872Z,101040.64
2019-04-30T19:30:55.852Z,101034.97
2019-04-30T19:33:18.916Z,101035.95
2019-04-30T19:35:50.418Z,101042.30
2019-04-30T19:38:18.790Z,101036.63
2019-04-30T19:40:49.380Z,101042.50
2019-04-30T19:43:18.489Z,101040.37
2019-04-30T19:45:49.080Z,101045.35
2019-04-30T19:48:18.364Z,101044.54
2019-04-30T19:50:48.848Z,101040.61
2019-04-30T19:53:21.811Z,101043.37
2019-04-30T19:55:49.296Z,101043.47
2019-04-30T19:58:26.168Z,101049.31
2019-04-30T20:00:49.864Z,101048.45
2019-04-30T20:03:19.812Z,101048.05
2019-04-30T20:05:49.049Z,101050.80
2019-04-30T20:08:19.882Z,101053.53
2019-04-30T20:10:49.619Z,101051.78
2019-04-30T20:13:31.148Z,101051.87
2019-04-30T20:15:49.726Z,101055.05
2019-04-30T20:18:19.166Z,101058.21
2019-04-30T20:20:51.929Z,101056.48
2019-04-30T20:23:20.896Z,101056.56
2019-04-30T20:25:49.969Z,101054.39
2019-04-30T20:28:18.990Z,101053.97
2019-04-30T20:30:48.994Z,101060.25
2019-04-30T20:33:19.023Z,101057.61
2019-04-30T20:35:48.965Z,101052.31
2019-04-30T20:38:52.421Z,101059.91
2019-04-30T20:41:21.485Z,101055.02
2019-04-30T20:43:50.580Z,101053.28
2019-04-30T20:46:32.112Z,101059.09
2019-04-30T20:48:50.378Z,101049.77
2019-04-30T20:51:19.715Z,101053.34
2019-04-30T20:53:49.195Z,101053.36
2019-04-30T20:56:19.123Z,101047.62
2019-04-30T20:58:57.209Z,101044.96
2019-04-30T21:01:19.416Z,101045.44
2019-04-30T21:03:48.653Z,101048.10
2019-04-30T21:06:19.635Z,101045.86
2019-04-30T21:08:48.521Z,101042.33
2019-04-30T21:11:19.326Z,101045.00
2019-04-30T21:13:49.113Z,101045.92
2019-04-30T21:16:18.315Z,101043.27
2019-04-30T21:18:47.408Z,101044.16
2019-04-30T21:21:16.547Z,101036.17
2019-04-30T21:23:49.172Z,101041.09
2019-04-30T21:26:19.625Z,101040.19
2019-04-30T21:28:49.408Z,101036.18
2019-04-30T21:31:56.040Z,101037.52
2019-04-30T21:34:33.066Z,101039.76
2019-04-30T21:37:02.218Z,101038.41
2019-04-30T21:39:31.226Z,101031.27
2019-04-30T21:42:00.300Z,101033.02
2019-04-30T21:44:29.395Z,101040.58
2019-04-30T21:46:58.400Z,101037.91
2019-04-30T21:49:27.487Z,101035.66
2019-04-30T21:51:56.550Z,101031.66
2019-04-30T21:54:25.575Z,101033.89
2019-04-30T21:56:54.640Z,101034.32
2019-04-30T21:59:24.797Z,101031.66
2019-04-30T22:01:54.078Z,101036.58
2019-04-30T22:04:23.091Z,101032.98
2019-04-30T22:06:52.173Z,101035.23
2019-04-30T22:09:21.438Z,101029.89
2019-04-30T22:11:50.509Z,101037.85
2019-04-30T22:14:19.599Z,101031.64
2019-04-30T22:16:49.415Z,101027.63
2019-04-30T22:19:18.641Z,101031.62
2019-04-30T22:21:49.520Z,101025.83
2019-04-30T22:24:18.533Z,101029.83
2019-04-30T22:26:47.620Z,101033.84
2019-04-30T22:29:16.642Z,101027.63
2019-04-30T22:31:45.748Z,101032.08
2019-04-30T22:34:14.825Z,101030.73
2019-04-30T22:36:48.848Z,101028.94
2019-04-30T22:39:31.778Z,101027.13
2019-04-30T22:42:30.819Z,101022.67
2019-04-30T22:45:00.996Z,101020.46
2019-04-30T22:47:30.077Z,101016.91
2019-04-30T22:49:59.165Z,101018.66
2019-04-30T22:52:28.232Z,101015.57
2019-04-30T22:54:57.238Z,101018.66
2019-04-30T22:57:26.307Z,101019.09
2019-04-30T22:59:55.399Z,101009.74
2019-04-30T23:02:43.459Z,101005.27
2019-04-30T23:05:14.964Z,101008.38
2019-04-30T23:07:44.041Z,101006.58
2019-04-30T23:10:13.167Z,101007.03
2019-04-30T23:12:42.222Z,101006.57
2019-04-30T23:15:11.487Z,101005.23
2019-04-30T23:17:40.572Z,101003.03
2019-04-30T23:20:09.636Z,100997.69
2019-04-30T23:22:38.722Z,100995.44
2019-04-30T23:25:08.027Z,100996.35
2019-04-30T23:27:37.109Z,100995.91
2019-04-30T23:30:07.245Z,100991.02
2019-04-30T23:32:36.363Z,100984.77
2019-04-30T23:35:05.546Z,100978.53
2019-04-30T23:37:34.630Z,100974.10
2019-04-30T23:40:23.071Z,100975.48
2019-04-30T23:42:52.530Z,100969.27
2019-04-30T23:45:21.744Z,100971.08
2019-04-30T23:47:50.833Z,100969.77
2019-04-30T23:50:19.894Z,100972.92
2019-04-30T23:52:48.991Z,100974.72
2019-04-30T23:55:18.062Z,100978.26
2019-04-30T23:57:47.153Z,100976.52
